Time;durP1;ratioP1;P1;durP2;ratioP2;P2;SDS_P1;SDS_P2;PMS_P1;PMS_P2;Temp;Humidity;BMP_temperature;BMP_pressure;BME280_temperature;BME280_humidity;BME280_pressure;Samples;Min_cycle;Max_cycle;Signal;HPM_P1;HPM_P2
2023/04/24 05:01:00;;;;;;;;;6.00;4.67;;;;;;;;5698850;22;46613;-57
2023/04/24 05:03:25;;;;;;;;;3.67;3.00;;;;;;;;5039076;28;45334;-58
2023/04/24 05:05:50;;;;;;;;;5.67;4.00;;;;;;;;5037723;28;45444;-57
2023/04/24 05:08:16;;;;;;;;;5.33;4.67;;;;;;;;5038468;28;45284;-57
2023/04/24 05:10:41;;;;;;;;;5.67;5.67;;;;;;;;5030351;28;45284;-58
2023/04/24 05:13:06;;;;;;;;;4.00;4.00;;;;;;;;5038590;28;45213;-57
2023/04/24 05:15:31;;;;;;;;;3.33;3.33;;;;;;;;5037598;28;47867;-57
2023/04/24 05:17:57;;;;;;;;;6.00;4.00;;;;;;;;5030879;28;45251;-58
2023/04/24 05:20:22;;;;;;;;;6.33;6.33;;;;;;;;5032321;28;45698;-57
2023/04/24 05:22:47;;;;;;;;;5.33;4.00;;;;;;;;5031914;28;45323;-57
2023/04/24 05:25:12;;;;;;;;;9.00;7.33;;;;;;;;5031180;28;45818;-57
2023/04/24 05:27:38;;;;;;;;;7.67;6.00;;;;;;;;5031924;28;45476;-57
2023/04/24 05:30:04;;;;;;;;;9.00;6.33;;;;;;;;5023567;28;45336;-57
2023/04/24 05:32:29;;;;;;;;;8.00;6.00;;;;;;;;5026473;28;45312;-57
2023/04/24 05:34:55;;;;;;;;;8.67;7.67;;;;;;;;5033025;28;45464;-57
2023/04/24 05:37:20;;;;;;;;;10.00;8.00;;;;;;;;5032213;28;45439;-57
2023/04/24 05:39:45;;;;;;;;;7.00;6.00;;;;;;;;5030884;28;45653;-57
2023/04/24 05:42:10;;;;;;;;;7.33;6.33;;;;;;;;5031093;28;45633;-57
2023/04/24 05:44:36;;;;;;;;;9.67;7.00;;;;;;;;5019731;28;46509;-57
2023/04/24 05:47:01;;;;;;;;;8.00;8.00;;;;;;;;5031494;28;45392;-57
2023/04/24 05:49:27;;;;;;;;;8.00;6.33;;;;;;;;5021787;28;45499;-57
2023/04/24 05:51:52;;;;;;;;;7.67;7.67;;;;;;;;5032877;28;45431;-57
2023/04/24 05:54:17;;;;;;;;;5.00;5.00;;;;;;;;5023551;28;45251;-58
2023/04/24 05:56:42;;;;;;;;;8.33;8.00;;;;;;;;5018373;28;45585;-58
2023/04/24 05:59:08;;;;;;;;;11.67;8.00;;;;;;;;5016636;28;45166;-58
2023/04/24 06:01:33;;;;;;;;;10.00;8.00;;;;;;;;5025738;28;45410;-57
2023/04/24 06:03:58;;;;;;;;;8.67;7.67;;;;;;;;5036936;28;45544;-58
2023/04/24 06:06:23;;;;;;;;;8.67;6.33;;;;;;;;5019068;28;45321;-57
2023/04/24 06:08:49;;;;;;;;;7.00;7.00;;;;;;;;5031939;28;45204;-57
2023/04/24 06:11:14;;;;;;;;;8.33;7.00;;;;;;;;5017431;28;45542;-57
2023/04/24 06:13:39;;;;;;;;;7.00;6.00;;;;;;;;5031481;28;45250;-57
2023/04/24 06:16:05;;;;;;;;;9.00;9.00;;;;;;;;5026119;28;45378;-57
2023/04/24 06:18:30;;;;;;;;;7.33;7.33;;;;;;;;5025249;28;45921;-57
2023/04/24 06:20:55;;;;;;;;;10.67;9.33;;;;;;;;5030968;28;45390;-57
2023/04/24 06:23:21;;;;;;;;;8.33;8.33;;;;;;;;5031414;28;45415;-57
2023/04/24 06:25:46;;;;;;;;;12.67;9.00;;;;;;;;5026014;28;45441;-57
2023/04/24 06:28:12;;;;;;;;;10.00;8.33;;;;;;;;5024792;28;45239;-58
2023/04/24 06:30:37;;;;;;;;;8.33;8.00;;;;;;;;5025682;28;45498;-57
2023/04/24 06:33:02;;;;;;;;;12.00;10.00;;;;;;;;5033005;28;46129;-58
2023/04/24 06:35:28;;;;;;;;;10.00;9.00;;;;;;;;5023198;28;45458;-60
2023/04/24 06:37:53;;;;;;;;;13.00;9.00;;;;;;;;5025244;28;45451;-58
2023/04/24 06:40:18;;;;;;;;;10.33;9.00;;;;;;;;5024635;28;45385;-56
2023/04/24 06:42:43;;;;;;;;;9.33;8.00;;;;;;;;5030460;28;46968;-56
2023/04/24 06:45:09;;;;;;;;;9.00;9.00;;;;;;;;5036541;28;45423;-57
2023/04/24 06:47:35;;;;;;;;;13.00;10.00;;;;;;;;5035601;28;45412;-57
2023/04/24 06:50:00;;;;;;;;;15.67;14.67;;;;;;;;5034979;28;45461;-58
2023/04/24 06:52:25;;;;;;;;;9.33;9.33;;;;;;;;5038532;28;45613;-57
2023/04/24 06:54:50;;;;;;;;;12.67;12.67;;;;;;;;5039056;28;45456;-58
2023/04/24 06:57:16;;;;;;;;;11.67;10.00;;;;;;;;5038969;28;45480;-58
2023/04/24 06:59:41;;;;;;;;;10.00;8.00;;;;;;;;5040324;28;45800;-57
2023/04/24 07:02:06;;;;;;;;;12.67;11.33;;;;;;;;5040536;28;46436;-58
2023/04/24 07:04:32;;;;;;;;;7.33;7.33;;;;;;;;5041044;28;45275;-58
2023/04/24 07:06:57;;;;;;;;;12.33;11.00;;;;;;;;5041351;28;45414;-57
2023/04/24 07:09:26;;;;;;;;;12.00;11.00;;;;;;;;5040333;28;45312;-58
2023/04/24 07:11:52;;;;;;;;;10.67;10.67;;;;;;;;5041150;28;45519;-57
2023/04/24 07:14:17;;;;;;;;;13.00;13.00;;;;;;;;5038610;28;45991;-57
2023/04/24 07:16:43;;;;;;;;;14.00;12.33;;;;;;;;5041265;28;45382;-57
2023/04/24 07:19:08;;;;;;;;;12.67;11.00;;;;;;;;5028318;28;45352;-57
2023/04/24 07:21:33;;;;;;;;;13.33;12.33;;;;;;;;5041502;28;45557;-57
2023/04/24 07:23:59;;;;;;;;;16.00;12.33;;;;;;;;5040882;28;45430;-57
2023/04/24 07:26:24;;;;;;;;;14.00;13.00;;;;;;;;5040795;28;45363;-57
2023/04/24 07:28:50;;;;;;;;;14.00;12.00;;;;;;;;5040559;28;45356;-58
2023/04/24 07:31:15;;;;;;;;;14.67;14.33;;;;;;;;5040817;28;45383;-57
2023/04/24 07:33:40;;;;;;;;;16.00;14.33;;;;;;;;5040881;28;45307;-57
2023/04/24 07:36:06;;;;;;;;;13.33;12.33;;;;;;;;5038931;28;45237;-57
2023/04/24 07:38:31;;;;;;;;;12.67;12.67;;;;;;;;5040872;28;45592;-57
2023/04/24 07:40:56;;;;;;;;;15.33;13.33;;;;;;;;5040891;28;45335;-58
2023/04/24 07:43:23;;;;;;;;;12.67;9.33;;;;;;;;5039183;28;45340;-58
2023/04/24 07:45:48;;;;;;;;;21.67;16.33;;;;;;;;5041052;28;45237;-58
2023/04/24 07:48:16;;;;;;;;;12.00;11.00;;;;;;;;5038544;28;45200;-58
2023/04/24 07:50:41;;;;;;;;;13.67;12.00;;;;;;;;5040695;28;46153;-58
2023/04/24 07:53:06;;;;;;;;;9.67;9.67;;;;;;;;5039670;28;45224;-58
2023/04/24 07:55:31;;;;;;;;;14.00;10.33;;;;;;;;5039209;28;45423;-57
2023/04/24 07:57:56;;;;;;;;;11.67;9.00;;;;;;;;5039598;28;45564;-58
2023/04/24 08:00:22;;;;;;;;;11.67;11.00;;;;;;;;5039903;28;46250;-58
2023/04/24 08:02:47;;;;;;;;;9.33;9.33;;;;;;;;5026099;28;45204;-58
2023/04/24 08:05:12;;;;;;;;;15.33;12.00;;;;;;;;5029519;28;45336;-57
2023/04/24 08:07:37;;;;;;;;;17.00;13.00;;;;;;;;5040081;28;45279;-57
2023/04/24 08:10:03;;;;;;;;;11.33;10.33;;;;;;;;5040012;28;46412;-58
2023/04/24 08:12:29;;;;;;;;;13.00;10.00;;;;;;;;5039954;28;45283;-58
2023/04/24 08:14:54;;;;;;;;;14.67;11.00;;;;;;;;5040512;28;45423;-58
2023/04/24 08:17:19;;;;;;;;;12.00;10.00;;;;;;;;5039122;28;45287;-58
2023/04/24 08:19:48;;;;;;;;;13.67;12.00;;;;;;;;5040215;28;45465;-58
2023/04/24 08:22:13;;;;;;;;;16.67;13.67;;;;;;;;5039412;28;45389;-58
2023/04/24 08:24:38;;;;;;;;;16.33;14.00;;;;;;;;5040309;28;45275;-57
2023/04/24 08:27:03;;;;;;;;;16.67;13.33;;;;;;;;5021553;28;45318;-58
2023/04/24 08:29:29;;;;;;;;;14.00;13.67;;;;;;;;5039462;28;45440;-57
2023/04/24 08:31:54;;;;;;;;;14.33;14.33;;;;;;;;5035863;28;45246;-58
2023/04/24 08:34:19;;;;;;;;;13.67;12.33;;;;;;;;5031433;28;45284;-58
2023/04/24 08:36:45;;;;;;;;;13.67;13.33;;;;;;;;5038187;28;45351;-57
2023/04/24 08:39:10;;;;;;;;;14.33;14.33;;;;;;;;5038138;28;45437;-57
2023/04/24 08:41:36;;;;;;;;;16.33;14.33;;;;;;;;5038448;28;45449;-57
2023/04/24 08:44:01;;;;;;;;;17.33;15.67;;;;;;;;5039657;28;45523;-56
2023/04/24 08:46:27;;;;;;;;;15.33;14.67;;;;;;;;5037358;28;45548;-58
2023/04/24 08:48:52;;;;;;;;;19.00;18.33;;;;;;;;5037520;28;46378;-58
2023/04/24 08:51:17;;;;;;;;;18.00;17.67;;;;;;;;5038612;28;45846;-57
2023/04/24 08:53:43;;;;;;;;;19.00;18.33;;;;;;;;5039672;28;45896;-57
2023/04/24 08:56:09;;;;;;;;;21.67;20.00;;;;;;;;5038870;28;45403;-57
2023/04/24 08:58:35;;;;;;;;;18.67;16.67;;;;;;;;5038785;28;46431;-57
2023/04/24 09:01:00;;;;;;;;;22.67;19.33;;;;;;;;5039191;28;45897;-58
2023/04/24 09:03:27;;;;;;;;;20.00;15.67;;;;;;;;5038669;28;45461;-57
2023/04/24 09:05:52;;;;;;;;;21.00;17.67;;;;;;;;5037594;28;45402;-57
2023/04/24 09:08:18;;;;;;;;;19.00;18.33;;;;;;;;5038636;28;46409;-57
2023/04/24 09:10:43;;;;;;;;;17.00;15.67;;;;;;;;5036614;28;45478;-57
2023/04/24 09:13:09;;;;;;;;;20.33;17.67;;;;;;;;5037526;28;45379;-57
2023/04/24 09:15:35;;;;;;;;;21.00;17.67;;;;;;;;5039250;28;45883;-58
2023/04/24 09:18:00;;;;;;;;;19.33;18.00;;;;;;;;5038781;28;45435;-58
2023/04/24 09:20:26;;;;;;;;;22.33;21.00;;;;;;;;5037415;28;45779;-58
2023/04/24 09:22:54;;;;;;;;;18.00;16.00;;;;;;;;5039542;28;45279;-61
2023/04/24 09:25:19;;;;;;;;;22.33;21.00;;;;;;;;5038522;28;45487;-57
2023/04/24 09:27:45;;;;;;;;;22.67;19.33;;;;;;;;5036814;28;47136;-57
2023/04/24 09:30:10;;;;;;;;;18.67;18.67;;;;;;;;5036637;28;45374;-58
2023/04/24 09:32:35;;;;;;;;;22.00;19.67;;;;;;;;5029749;28;45446;-58
2023/04/24 09:35:14;;;;;;;;;20.33;17.33;;;;;;;;5037172;28;45449;-57
2023/04/24 09:37:46;;;;;;;;;17.00;17.00;;;;;;;;5039167;28;45627;-58
2023/04/24 09:40:14;;;;;;;;;21.33;20.33;;;;;;;;5036738;28;46113;-58
2023/04/24 09:42:42;;;;;;;;;19.67;18.00;;;;;;;;5038638;28;45298;-58
2023/04/24 09:45:08;;;;;;;;;21.00;18.00;;;;;;;;5037513;28;46170;-58
2023/04/24 09:47:37;;;;;;;;;19.67;19.67;;;;;;;;5038264;28;45283;-57
2023/04/24 09:50:12;;;;;;;;;19.67;19.33;;;;;;;;5037333;28;45217;-58
2023/04/24 09:52:42;;;;;;;;;13.33;13.33;;;;;;;;5032603;28;45482;-57
2023/04/24 09:55:10;;;;;;;;;19.33;15.67;;;;;;;;5037807;28;45676;-56
2023/04/24 09:57:46;;;;;;;;;17.67;16.67;;;;;;;;5036961;28;45665;-57
2023/04/24 10:00:11;;;;;;;;;16.00;15.00;;;;;;;;5037580;28;45482;-59
2023/04/24 10:02:37;;;;;;;;;21.67;16.00;;;;;;;;5038807;28;45370;-58
2023/04/24 10:05:02;;;;;;;;;16.33;15.33;;;;;;;;5038168;28;45322;-58
2023/04/24 10:07:27;;;;;;;;;13.33;13.33;;;;;;;;5038547;28;45334;-58
2023/04/24 10:09:52;;;;;;;;;15.67;15.67;;;;;;;;5038705;28;45388;-58
2023/04/24 10:12:18;;;;;;;;;19.67;17.67;;;;;;;;5036562;28;45354;-58
2023/04/24 10:14:44;;;;;;;;;17.67;16.00;;;;;;;;5027689;28;45611;-58
2023/04/24 10:17:10;;;;;;;;;16.67;16.67;;;;;;;;5037966;28;45295;-58
2023/04/24 10:19:36;;;;;;;;;11.67;11.67;;;;;;;;5038566;28;45309;-58
2023/04/24 10:22:02;;;;;;;;;18.00;14.00;;;;;;;;5036192;28;45298;-58
2023/04/24 10:24:28;;;;;;;;;14.67;14.67;;;;;;;;5029499;28;45685;-58
2023/04/24 10:26:53;;;;;;;;;15.33;14.33;;;;;;;;5041715;28;46583;-57
2023/04/24 10:29:19;;;;;;;;;14.33;14.33;;;;;;;;5041434;28;45528;-57
2023/04/24 10:31:47;;;;;;;;;16.67;16.33;;;;;;;;5041882;28;45453;-57
2023/04/24 10:34:14;;;;;;;;;14.67;14.67;;;;;;;;5040432;28;45419;-56
2023/04/24 10:36:41;;;;;;;;;20.67;15.67;;;;;;;;5040043;28;45355;-57
2023/04/24 10:39:10;;;;;;;;;17.67;14.00;;;;;;;;5040005;28;45458;-57
2023/04/24 10:41:37;;;;;;;;;17.33;15.33;;;;;;;;5041646;28;45417;-57
2023/04/24 10:44:05;;;;;;;;;21.33;18.00;;;;;;;;5040928;28;45489;-56
2023/04/24 10:46:30;;;;;;;;;19.33;16.67;;;;;;;;5040036;28;46162;-56
2023/04/24 10:48:56;;;;;;;;;9.67;8.67;;;;;;;;5040866;28;45327;-56
2023/04/24 10:51:22;;;;;;;;;14.33;13.33;;;;;;;;5040322;28;45288;-57
2023/04/24 10:53:49;;;;;;;;;16.00;15.67;;;;;;;;5040912;28;45505;-57
2023/04/24 10:56:15;;;;;;;;;13.00;11.00;;;;;;;;5039990;28;46850;-57
2023/04/24 10:58:44;;;;;;;;;11.00;10.67;;;;;;;;5040640;28;45355;-58
2023/04/24 11:01:22;;;;;;;;;14.67;12.33;;;;;;;;5040127;28;46178;-57
2023/04/24 11:03:53;;;;;;;;;14.33;13.00;;;;;;;;5041445;28;45556;-57
2023/04/24 11:06:28;;;;;;;;;15.67;14.00;;;;;;;;5028218;28;46354;-57
2023/04/24 11:08:58;;;;;;;;;13.67;11.67;;;;;;;;5039803;28;45432;-57
2023/04/24 11:11:28;;;;;;;;;13.00;13.00;;;;;;;;5040741;28;45679;-57
2023/04/24 11:13:56;;;;;;;;;12.33;10.33;;;;;;;;5011268;28;45440;-58
2023/04/24 11:16:26;;;;;;;;;13.67;12.00;;;;;;;;5040705;28;45391;-58
2023/04/24 11:18:54;;;;;;;;;14.00;12.33;;;;;;;;5041175;28;45784;-58
2023/04/24 11:21:19;;;;;;;;;12.33;12.00;;;;;;;;5041032;28;45374;-58
2023/04/24 11:23:45;;;;;;;;;12.67;12.33;;;;;;;;5039139;28;45448;-58
2023/04/24 11:26:32;;;;;;;;;16.00;11.00;;;;;;;;5031028;28;45445;-58
2023/04/24 11:29:06;;;;;;;;;12.00;11.67;;;;;;;;5028035;28;45388;-58
2023/04/24 11:31:35;;;;;;;;;8.67;8.67;;;;;;;;5039711;28;45406;-58
2023/04/24 11:34:11;;;;;;;;;14.00;13.00;;;;;;;;5022478;28;45327;-58
2023/04/24 11:36:37;;;;;;;;;14.33;11.00;;;;;;;;5035447;28;45661;-58
2023/04/24 11:39:02;;;;;;;;;11.33;11.33;;;;;;;;5040790;28;45434;-58
2023/04/24 11:41:28;;;;;;;;;12.50;10.75;;;;;;;;5039619;28;45234;-58
2023/04/24 11:43:53;;;;;;;;;13.75;13.00;;;;;;;;5040859;28;45219;-58
2023/04/24 11:46:20;;;;;;;;;14.25;13.25;;;;;;;;5039044;28;46285;-58
2023/04/24 11:48:45;;;;;;;;;12.50;11.00;;;;;;;;5040133;28;45681;-58
2023/04/24 11:51:12;;;;;;;;;10.25;10.25;;;;;;;;5040284;28;45332;-58
2023/04/24 11:53:37;;;;;;;;;12.50;9.75;;;;;;;;5041088;28;45173;-58
2023/04/24 11:56:03;;;;;;;;;8.00;8.00;;;;;;;;5039487;28;45688;-58
2023/04/24 11:58:28;;;;;;;;;11.00;10.25;;;;;;;;5040030;28;45328;-58
2023/04/24 12:00:57;;;;;;;;;12.00;10.00;;;;;;;;5040439;28;45506;-58
2023/04/24 12:03:23;;;;;;;;;9.00;7.00;;;;;;;;5032193;28;45617;-58
2023/04/24 12:05:48;;;;;;;;;10.33;8.67;;;;;;;;5036312;28;46558;-58
2023/04/24 12:08:26;;;;;;;;;9.33;9.00;;;;;;;;5039970;28;45328;-58
2023/04/24 12:10:52;;;;;;;;;6.00;6.00;;;;;;;;5040319;28;45167;-58
2023/04/24 12:13:17;;;;;;;;;8.67;6.00;;;;;;;;5039966;28;45542;-58
2023/04/24 12:15:42;;;;;;;;;6.00;6.00;;;;;;;;5039846;28;46255;-58
2023/04/24 12:18:11;;;;;;;;;7.00;7.00;;;;;;;;5039779;28;45300;-58
2023/04/24 12:20:36;;;;;;;;;6.00;6.00;;;;;;;;5040460;28;45435;-58
2023/04/24 12:23:01;;;;;;;;;9.33;6.33;;;;;;;;5040158;28;45452;-58
2023/04/24 12:25:28;;;;;;;;;6.67;6.33;;;;;;;;5039959;28;46351;-57
2023/04/24 12:27:55;;;;;;;;;4.33;4.33;;;;;;;;5040126;28;45299;-57
2023/04/24 12:30:21;;;;;;;;;5.67;5.67;;;;;;;;5039609;28;45430;-57
2023/04/24 12:32:47;;;;;;;;;3.00;3.00;;;;;;;;5040418;28;45282;-58
2023/04/24 12:35:13;;;;;;;;;9.00;6.00;;;;;;;;5037927;28;45463;-58
2023/04/24 12:37:41;;;;;;;;;7.00;6.00;;;;;;;;5040381;28;45398;-58
2023/04/24 12:40:08;;;;;;;;;5.67;5.67;;;;;;;;5039718;28;45476;-58
2023/04/24 12:42:34;;;;;;;;;5.33;5.33;;;;;;;;5037700;28;45553;-58
2023/04/24 12:45:00;;;;;;;;;5.33;5.33;;;;;;;;5039559;28;45483;-58
2023/04/24 12:47:26;;;;;;;;;5.33;5.33;;;;;;;;5036330;28;45272;-58
2023/04/24 12:49:52;;;;;;;;;5.67;5.67;;;;;;;;5039447;28;45247;-58
2023/04/24 12:52:19;;;;;;;;;4.00;4.00;;;;;;;;5039702;28;45430;-57
2023/04/24 12:54:45;;;;;;;;;4.33;4.33;;;;;;;;5039553;28;45462;-57
2023/04/24 12:57:10;;;;;;;;;5.00;5.00;;;;;;;;5039124;28;45442;-57
2023/04/24 12:59:35;;;;;;;;;6.67;5.00;;;;;;;;5038388;28;45402;-58
2023/04/24 13:02:00;;;;;;;;;4.00;4.00;;;;;;;;5039818;28;45424;-58
2023/04/24 13:04:25;;;;;;;;;7.00;6.00;;;;;;;;5038880;28;46393;-58
2023/04/24 13:06:51;;;;;;;;;4.33;4.00;;;;;;;;5039706;28;45412;-57
2023/04/24 13:09:16;;;;;;;;;7.67;6.00;;;;;;;;5039328;28;46253;-58
2023/04/24 13:11:41;;;;;;;;;5.00;5.00;;;;;;;;5039442;28;45746;-57
2023/04/24 13:14:06;;;;;;;;;5.00;5.00;;;;;;;;5038814;28;45364;-57
2023/04/24 13:16:31;;;;;;;;;5.00;5.00;;;;;;;;5039552;28;45414;-58
2023/04/24 13:18:57;;;;;;;;;3.00;3.00;;;;;;;;5039686;28;45330;-57
2023/04/24 13:21:22;;;;;;;;;5.67;4.33;;;;;;;;5039364;28;45478;-57
2023/04/24 13:23:47;;;;;;;;;5.00;5.00;;;;;;;;5039165;28;45410;-58
2023/04/24 13:26:12;;;;;;;;;7.00;4.67;;;;;;;;5039124;28;45450;-57
2023/04/24 13:28:38;;;;;;;;;6.67;6.67;;;;;;;;5039118;28;45458;-57
2023/04/24 13:31:03;;;;;;;;;7.33;6.00;;;;;;;;5039253;28;45624;-58
2023/04/24 13:33:28;;;;;;;;;4.67;4.67;;;;;;;;5038933;28;45785;-57
2023/04/24 13:35:53;;;;;;;;;4.00;4.00;;;;;;;;5037805;28;45396;-57
2023/04/24 13:38:21;;;;;;;;;5.67;5.67;;;;;;;;5038657;28;45541;-57
2023/04/24 13:40:46;;;;;;;;;5.00;4.00;;;;;;;;5039348;28;45295;-57
2023/04/24 13:43:11;;;;;;;;;5.00;5.00;;;;;;;;5036524;28;45311;-57
2023/04/24 13:45:37;;;;;;;;;6.00;5.00;;;;;;;;5037694;28;45334;-57
2023/04/24 13:48:02;;;;;;;;;5.00;4.00;;;;;;;;5036967;28;45604;-56
2023/04/24 13:50:28;;;;;;;;;5.00;5.00;;;;;;;;5038999;28;45325;-57
2023/04/24 13:52:53;;;;;;;;;7.67;6.00;;;;;;;;5037379;28;45358;-57
2023/04/24 13:55:19;;;;;;;;;5.00;5.00;;;;;;;;5038508;28;45386;-57
2023/04/24 13:57:44;;;;;;;;;7.00;5.33;;;;;;;;5037165;28;45497;-57
2023/04/24 14:00:10;;;;;;;;;5.67;5.00;;;;;;;;5035782;28;45667;-57
2023/04/24 14:02:36;;;;;;;;;5.33;5.33;;;;;;;;5038567;28;46641;-57
2023/04/24 14:05:02;;;;;;;;;5.00;5.00;;;;;;;;5038704;28;45265;-57
2023/04/24 14:07:28;;;;;;;;;3.00;3.00;;;;;;;;5037269;28;45278;-57
2023/04/24 14:09:54;;;;;;;;;5.00;5.00;;;;;;;;5038632;28;45429;-57
2023/04/24 14:12:20;;;;;;;;;3.33;3.33;;;;;;;;5035812;28;45908;-57
2023/04/24 14:14:46;;;;;;;;;4.67;4.33;;;;;;;;5038677;28;45406;-57
2023/04/24 14:17:11;;;;;;;;;3.33;3.00;;;;;;;;5037980;28;45248;-57
2023/04/24 14:19:37;;;;;;;;;4.00;4.00;;;;;;;;5038798;28;45154;-57
2023/04/24 14:22:02;;;;;;;;;3.33;3.33;;;;;;;;5036432;28;46037;-58
2023/04/24 14:24:27;;;;;;;;;6.00;4.67;;;;;;;;5038512;28;45364;-58
2023/04/24 14:26:52;;;;;;;;;4.00;4.00;;;;;;;;5038299;28;45386;-58
2023/04/24 14:29:19;;;;;;;;;6.33;4.67;;;;;;;;5036570;28;45469;-58
2023/04/24 14:31:44;;;;;;;;;4.00;4.00;;;;;;;;5036527;28;48182;-58
2023/04/24 14:34:09;;;;;;;;;5.00;5.00;;;;;;;;5036591;28;45430;-58
2023/04/24 14:36:35;;;;;;;;;3.00;2.00;;;;;;;;5037168;28;45296;-58
2023/04/24 14:39:03;;;;;;;;;3.00;3.00;;;;;;;;5038090;28;45585;-58
2023/04/24 14:41:28;;;;;;;;;4.33;2.67;;;;;;;;5035018;28;47238;-58
2023/04/24 14:43:53;;;;;;;;;4.00;3.67;;;;;;;;5026222;28;45350;-58
2023/04/24 14:46:18;;;;;;;;;3.33;3.33;;;;;;;;5036278;28;45260;-58
2023/04/24 14:48:43;;;;;;;;;5.00;3.00;;;;;;;;5036619;28;45373;-58
2023/04/24 14:51:09;;;;;;;;;4.00;4.00;;;;;;;;5035871;28;45338;-58
2023/04/24 14:53:34;;;;;;;;;5.00;2.67;;;;;;;;5037802;28;45225;-58
2023/04/24 14:55:59;;;;;;;;;4.33;4.00;;;;;;;;5036854;28;45259;-58
2023/04/24 14:58:25;;;;;;;;;8.00;4.67;;;;;;;;5037519;28;45230;-58
2023/04/24 15:00:51;;;;;;;;;5.00;5.00;;;;;;;;5037665;28;45571;-58
2023/04/24 15:03:17;;;;;;;;;4.67;4.00;;;;;;;;5036857;28;45224;-58
2023/04/24 15:05:43;;;;;;;;;5.00;3.67;;;;;;;;5036344;28;45568;-58
2023/04/24 15:08:08;;;;;;;;;3.50;3.50;;;;;;;;5037550;28;45433;-57
2023/04/24 15:10:33;;;;;;;;;5.00;4.00;;;;;;;;5036057;28;46039;-58
2023/04/24 15:12:58;;;;;;;;;2.00;2.00;;;;;;;;5040921;28;45458;-58
2023/04/24 15:15:23;;;;;;;;;3.00;3.00;;;;;;;;5040662;28;45310;-58
2023/04/24 15:17:49;;;;;;;;;3.00;3.00;;;;;;;;5041121;28;45514;-58
2023/04/24 15:20:14;;;;;;;;;2.00;2.00;;;;;;;;5040430;28;46233;-58
2023/04/24 15:22:39;;;;;;;;;3.00;3.00;;;;;;;;5041494;28;45601;-58
2023/04/24 15:25:05;;;;;;;;;2.67;2.67;;;;;;;;5040428;28;45312;-58
2023/04/24 15:27:43;;;;;;;;;5.00;4.00;;;;;;;;5039531;28;45465;-58
2023/04/24 15:30:09;;;;;;;;;3.00;3.00;;;;;;;;5039994;28;46724;-58
2023/04/24 15:32:34;;;;;;;;;3.00;3.00;;;;;;;;5040840;28;45359;-57
2023/04/24 15:35:00;;;;;;;;;2.00;2.00;;;;;;;;5039114;28;45300;-57
2023/04/24 15:37:25;;;;;;;;;2.00;2.00;;;;;;;;5040708;28;45407;-57
2023/04/24 15:39:50;;;;;;;;;1.00;1.00;;;;;;;;5040448;28;45276;-58
2023/04/24 15:42:15;;;;;;;;;3.00;3.00;;;;;;;;5039987;28;45327;-57
2023/04/24 15:44:40;;;;;;;;;2.00;2.00;;;;;;;;5040562;28;45382;-57
2023/04/24 15:47:06;;;;;;;;;2.33;2.33;;;;;;;;5040590;28;45164;-56
2023/04/24 15:49:31;;;;;;;;;4.33;4.33;;;;;;;;5038773;28;47166;-58
2023/04/24 15:51:56;;;;;;;;;4.00;3.00;;;;;;;;5040942;28;45331;-58
2023/04/24 15:54:21;;;;;;;;;3.00;3.00;;;;;;;;5039217;28;45442;-58
2023/04/24 15:56:48;;;;;;;;;9.00;6.00;;;;;;;;5040786;28;45282;-58
2023/04/24 15:59:13;;;;;;;;;3.00;3.00;;;;;;;;5039347;28;45357;-58
2023/04/24 16:01:39;;;;;;;;;2.33;2.33;;;;;;;;5039630;28;45394;-58
2023/04/24 16:04:04;;;;;;;;;4.00;4.00;;;;;;;;5037728;28;45382;-58
2023/04/24 16:06:30;;;;;;;;;3.67;3.67;;;;;;;;5027356;28;45468;-58
2023/04/24 16:08:55;;;;;;;;;4.67;3.33;;;;;;;;5026916;28;46380;-58
2023/04/24 16:11:21;;;;;;;;;4.67;4.67;;;;;;;;5032582;28;45413;-58
2023/04/24 16:13:46;;;;;;;;;5.00;4.00;;;;;;;;5034031;28;45379;-58
2023/04/24 16:16:11;;;;;;;;;4.00;4.00;;;;;;;;5027732;28;45398;-58
2023/04/24 16:18:36;;;;;;;;;4.00;4.00;;;;;;;;5027012;28;46466;-57
2023/04/24 16:21:01;;;;;;;;;4.00;4.00;;;;;;;;5032896;28;45525;-57
2023/04/24 16:23:26;;;;;;;;;6.33;5.00;;;;;;;;5033428;28;45438;-57
2023/04/24 16:25:52;;;;;;;;;3.00;3.00;;;;;;;;5025781;28;45352;-57
2023/04/24 16:28:17;;;;;;;;;5.33;5.33;;;;;;;;5024405;28;46111;-57
2023/04/24 16:30:42;;;;;;;;;5.33;5.00;;;;;;;;5033176;28;45682;-57
2023/04/24 16:33:09;;;;;;;;;6.00;6.00;;;;;;;;5033207;28;45433;-57
2023/04/24 16:35:35;;;;;;;;;4.00;4.00;;;;;;;;5034003;28;45501;-57
2023/04/24 16:38:02;;;;;;;;;3.67;3.67;;;;;;;;5030546;28;45365;-57
2023/04/24 16:40:27;;;;;;;;;4.00;4.00;;;;;;;;5032278;28;45437;-57
2023/04/24 16:42:53;;;;;;;;;4.33;4.33;;;;;;;;5031394;28;45414;-58
2023/04/24 16:45:19;;;;;;;;;6.67;5.00;;;;;;;;5026823;28;45438;-57
2023/04/24 16:47:44;;;;;;;;;4.67;4.00;;;;;;;;5030106;28;46466;-57
2023/04/24 16:50:09;;;;;;;;;5.00;3.67;;;;;;;;5026050;28;45346;-57
2023/04/24 16:52:35;;;;;;;;;3.00;3.00;;;;;;;;5026821;28;45357;-57
2023/04/24 16:55:00;;;;;;;;;6.00;5.00;;;;;;;;5040376;28;45617;-57
2023/04/24 16:57:25;;;;;;;;;4.00;4.00;;;;;;;;5029379;28;45569;-57
2023/04/24 16:59:50;;;;;;;;;7.00;6.00;;;;;;;;5029712;28;45328;-57
2023/04/24 17:02:15;;;;;;;;;5.33;5.33;;;;;;;;5024157;28;45387;-57
2023/04/24 17:04:41;;;;;;;;;4.67;4.67;;;;;;;;5038628;28;45616;-57
2023/04/24 17:07:06;;;;;;;;;6.33;6.00;;;;;;;;5039153;28;45988;-57
2023/04/24 17:09:31;;;;;;;;;6.33;6.33;;;;;;;;5038073;28;45791;-57
2023/04/24 17:11:56;;;;;;;;;4.00;4.00;;;;;;;;5039665;28;45379;-57
2023/04/24 17:14:22;;;;;;;;;6.00;5.00;;;;;;;;5038128;28;45434;-57
2023/04/24 17:16:48;;;;;;;;;4.33;4.33;;;;;;;;5039346;28;46295;-57
2023/04/24 17:19:13;;;;;;;;;4.00;2.67;;;;;;;;5038763;28;45305;-58
2023/04/24 17:21:39;;;;;;;;;2.33;2.33;;;;;;;;5039381;28;45303;-57
2023/04/24 17:24:04;;;;;;;;;2.00;2.00;;;;;;;;5038461;28;45358;-57
2023/04/24 17:26:32;;;;;;;;;2.00;2.00;;;;;;;;5039037;28;47328;-58
2023/04/24 17:28:57;;;;;;;;;2.00;2.00;;;;;;;;5038921;28;45311;-57
2023/04/24 17:31:23;;;;;;;;;2.00;2.00;;;;;;;;5038911;28;45284;-57
2023/04/24 17:33:48;;;;;;;;;2.33;2.33;;;;;;;;5038452;28;45328;-58
2023/04/24 17:36:13;;;;;;;;;3.00;2.00;;;;;;;;5031517;28;45299;-57
2023/04/24 17:38:38;;;;;;;;;4.67;4.00;;;;;;;;5034738;28;45481;-57
2023/04/24 17:41:04;;;;;;;;;3.00;3.00;;;;;;;;5031795;28;45402;-58
2023/04/24 17:43:29;;;;;;;;;3.00;3.00;;;;;;;;5038340;28;45478;-57
2023/04/24 17:45:55;;;;;;;;;5.00;5.00;;;;;;;;5034026;28;45704;-57
2023/04/24 17:48:21;;;;;;;;;5.67;5.67;;;;;;;;5034146;28;45497;-57
2023/04/24 17:50:47;;;;;;;;;4.67;4.33;;;;;;;;5038698;28;45580;-57
2023/04/24 17:53:12;;;;;;;;;5.33;4.00;;;;;;;;5033978;28;45519;-57
2023/04/24 17:55:38;;;;;;;;;5.33;5.00;;;;;;;;5037966;28;46701;-56
2023/04/24 17:58:04;;;;;;;;;5.00;5.00;;;;;;;;5034582;28;45455;-58
2023/04/24 18:00:29;;;;;;;;;6.33;5.67;;;;;;;;5038293;28;45358;-58
2023/04/24 18:02:59;;;;;;;;;4.00;4.00;;;;;;;;5022155;28;45296;-58
2023/04/24 18:05:25;;;;;;;;;5.00;5.00;;;;;;;;5028643;28;47018;-57
2023/04/24 18:07:50;;;;;;;;;6.00;4.67;;;;;;;;5032333;28;45261;-58
2023/04/24 18:10:15;;;;;;;;;6.00;6.00;;;;;;;;5027942;28;45421;-58
2023/04/24 18:12:40;;;;;;;;;7.00;7.00;;;;;;;;5028737;28;45445;-58
2023/04/24 18:15:06;;;;;;;;;6.00;6.00;;;;;;;;5019147;28;45837;-58
2023/04/24 18:17:31;;;;;;;;;7.67;6.33;;;;;;;;5030860;28;45242;-58
2023/04/24 18:19:56;;;;;;;;;5.00;5.00;;;;;;;;5031305;28;45403;-58
2023/04/24 18:22:22;;;;;;;;;7.00;6.33;;;;;;;;5020778;28;46590;-58
2023/04/24 18:24:47;;;;;;;;;7.00;5.33;;;;;;;;5028203;28;46074;-57
2023/04/24 18:27:12;;;;;;;;;6.00;6.00;;;;;;;;5031953;28;45496;-57
2023/04/24 18:29:38;;;;;;;;;12.33;7.67;;;;;;;;5032245;28;45605;-57
2023/04/24 18:32:03;;;;;;;;;4.00;4.00;;;;;;;;5037759;28;45311;-57
2023/04/24 18:34:30;;;;;;;;;9.33;7.00;;;;;;;;5035336;28;46282;-57
2023/04/24 18:36:55;;;;;;;;;6.00;6.00;;;;;;;;5033081;28;45237;-57
2023/04/24 18:39:20;;;;;;;;;6.00;6.00;;;;;;;;5018035;28;45431;-57
2023/04/24 18:41:45;;;;;;;;;5.00;5.00;;;;;;;;5029771;28;45208;-56
2023/04/24 18:44:10;;;;;;;;;4.00;4.00;;;;;;;;5030626;28;45432;-57
2023/04/24 18:46:40;;;;;;;;;4.00;4.00;;;;;;;;5040690;28;45778;-58
2023/04/24 18:49:05;;;;;;;;;6.33;6.33;;;;;;;;5039350;28;45422;-58
2023/04/24 18:51:31;;;;;;;;;11.00;9.33;;;;;;;;5032697;28;45505;-57
2023/04/24 18:53:56;;;;;;;;;14.67;11.67;;;;;;;;5039209;28;46520;-57
2023/04/24 18:56:21;;;;;;;;;13.33;11.67;;;;;;;;5039587;28;45425;-57
2023/04/24 18:58:47;;;;;;;;;8.67;8.67;;;;;;;;5040566;28;45429;-54
2023/04/24 19:01:12;;;;;;;;;9.67;9.00;;;;;;;;5041522;28;45476;-57
2023/04/24 19:03:37;;;;;;;;;9.33;8.00;;;;;;;;5037820;28;45536;-58
2023/04/24 19:06:02;;;;;;;;;11.00;8.33;;;;;;;;5041232;28;45335;-58
2023/04/24 19:08:27;;;;;;;;;10.33;9.00;;;;;;;;5024467;28;45533;-58
2023/04/24 19:10:53;;;;;;;;;8.00;8.00;;;;;;;;5032802;28;45400;-58
2023/04/24 19:13:19;;;;;;;;;7.00;6.00;;;;;;;;5033733;28;46283;-58
2023/04/24 19:15:44;;;;;;;;;11.33;9.67;;;;;;;;5031088;28;45329;-57
2023/04/24 19:18:09;;;;;;;;;10.00;8.00;;;;;;;;5027752;28;45660;-58
2023/04/24 19:20:34;;;;;;;;;11.00;8.00;;;;;;;;5030946;28;45320;-58
2023/04/24 19:23:00;;;;;;;;;6.67;5.67;;;;;;;;5024782;28;46516;-59
2023/04/24 19:25:25;;;;;;;;;6.67;5.67;;;;;;;;5032033;28;45594;-57